createdAt,value
2023-01-30T00:00:28.543Z,12.57
2023-01-30T00:02:55.050Z,10.77
2023-01-30T00:05:21.577Z,11.63
2023-01-30T00:07:48.109Z,9.40
2023-01-30T00:10:14.862Z,10.00
2023-01-30T00:12:41.572Z,11.63
2023-01-30T00:15:08.830Z,9.17
2023-01-30T00:17:36.696Z,11.50
2023-01-30T00:20:03.436Z,10.00
2023-01-30T00:22:29.992Z,12.07
2023-01-30T00:24:56.616Z,10.17
2023-01-30T00:27:23.261Z,9.23
2023-01-30T00:30:02.208Z,10.23
2023-01-30T00:32:29.480Z,10.77
2023-01-30T00:34:57.351Z,11.50
2023-01-30T00:37:23.925Z,11.33
2023-01-30T00:39:50.500Z,11.77
2023-01-30T00:42:17.208Z,11.63
2023-01-30T00:44:43.742Z,11.77
2023-01-30T00:47:10.469Z,8.40
2023-01-30T00:49:37.464Z,11.17
2023-01-30T00:52:05.970Z,11.93
2023-01-30T00:54:32.545Z,9.93
2023-01-30T00:56:59.417Z,8.80
2023-01-30T00:59:26.050Z,10.93
2023-01-30T01:01:52.657Z,9.80
2023-01-30T01:04:19.575Z,8.77
2023-01-30T01:06:46.122Z,8.47
2023-01-30T01:09:13.993Z,9.43
2023-01-30T01:11:40.553Z,9.03
2023-01-30T01:14:07.448Z,8.97
2023-01-30T01:16:35.251Z,9.20
2023-01-30T01:19:02.055Z,7.73
2023-01-30T01:21:28.603Z,10.03
2023-01-30T01:23:57.451Z,8.73
2023-01-30T01:26:26.089Z,9.17
2023-01-30T01:28:54.716Z,10.87
2023-01-30T01:31:21.337Z,9.90
2023-01-30T01:33:47.884Z,9.17
2023-01-30T01:36:29.367Z,8.03
2023-01-30T01:39:01.395Z,9.03
2023-01-30T01:41:29.718Z,9.10
2023-01-30T01:44:02.241Z,10.00
2023-01-30T01:46:35.792Z,9.17
2023-01-30T01:49:06.581Z,9.60
2023-01-30T01:51:35.587Z,10.03
2023-01-30T01:54:06.287Z,9.80
2023-01-30T01:56:35.758Z,9.50
2023-01-30T01:59:06.111Z,9.80
2023-01-30T02:01:33.067Z,9.67
2023-01-30T02:04:04.257Z,10.33
2023-01-30T02:06:32.025Z,11.40
2023-01-30T02:09:02.614Z,11.10
2023-01-30T02:11:33.386Z,9.03
2023-01-30T02:14:02.913Z,10.83
2023-01-30T02:16:29.486Z,10.47
2023-01-30T02:18:56.054Z,10.70
2023-01-30T02:21:48.741Z,10.03
2023-01-30T02:24:50.551Z,10.40
2023-01-30T02:27:49.800Z,10.00
2023-01-30T02:30:50.541Z,10.03
2023-01-30T02:33:25.500Z,11.00
2023-01-30T02:35:59.970Z,9.83
2023-01-30T02:38:35.499Z,9.73
2023-01-30T02:41:13.485Z,10.37
2023-01-30T02:43:46.504Z,9.07
2023-01-30T02:46:18.645Z,9.60
2023-01-30T02:48:49.119Z,11.43
2023-01-30T02:51:19.528Z,10.17
2023-01-30T02:53:47.598Z,11.47
2023-01-30T02:56:14.253Z,10.70
2023-01-30T02:58:43.886Z,10.83
2023-01-30T03:01:43.369Z,9.97
2023-01-30T03:04:24.061Z,9.87
2023-01-30T03:07:04.581Z,9.33
2023-01-30T03:09:40.818Z,9.93
2023-01-30T03:12:11.984Z,10.33
2023-01-30T03:14:45.932Z,10.57
2023-01-30T03:17:15.952Z,11.80
2023-01-30T03:19:43.146Z,10.03
2023-01-30T03:22:09.799Z,10.43
2023-01-30T03:24:36.309Z,9.60
2023-01-30T03:27:07.394Z,10.37
2023-01-30T03:29:34.977Z,9.43
2023-01-30T03:32:01.586Z,10.50
2023-01-30T03:34:29.522Z,11.73
2023-01-30T03:36:56.230Z,9.40
2023-01-30T03:39:23.412Z,8.87
2023-01-30T03:41:50.580Z,10.57
2023-01-30T03:44:17.116Z,10.50
2023-01-30T03:46:43.630Z,9.13
2023-01-30T03:49:10.155Z,10.13
2023-01-30T03:51:38.020Z,9.13
2023-01-30T03:54:04.589Z,8.90
2023-01-30T03:56:31.748Z,9.13
2023-01-30T03:58:58.320Z,11.83
2023-01-30T04:01:24.977Z,10.77
2023-01-30T04:03:51.482Z,8.17
2023-01-30T04:06:18.245Z,9.90
2023-01-30T04:08:46.122Z,9.50
2023-01-30T04:11:12.656Z,10.07
2023-01-30T04:13:39.132Z,9.93
2023-01-30T04:16:16.589Z,9.53
2023-01-30T04:18:43.235Z,9.93
2023-01-30T04:21:10.031Z,9.77
2023-01-30T04:23:36.523Z,12.33
2023-01-30T04:26:04.699Z,10.77
2023-01-30T04:28:31.267Z,10.23
2023-01-30T04:30:57.855Z,11.70
2023-01-30T04:33:24.582Z,10.00
2023-01-30T04:35:52.205Z,12.53
2023-01-30T04:38:18.741Z,14.07
2023-01-30T04:40:48.398Z,13.00
2023-01-30T04:43:16.268Z,11.43
2023-01-30T04:45:43.170Z,9.70
2023-01-30T04:48:09.719Z,9.10
2023-01-30T04:50:36.242Z,8.97
2023-01-30T04:53:02.803Z,9.50
2023-01-30T04:55:29.329Z,11.80
2023-01-30T04:57:55.971Z,11.20
2023-01-30T05:00:24.537Z,10.83
2023-01-30T05:02:51.255Z,10.37
2023-01-30T05:05:18.034Z,10.50
2023-01-30T05:07:44.743Z,8.67
2023-01-30T05:10:11.826Z,10.90
2023-01-30T05:12:38.447Z,10.73
2023-01-30T05:15:05.742Z,9.03
2023-01-30T05:17:33.675Z,11.00
2023-01-30T05:20:00.393Z,11.63
2023-01-30T05:22:26.975Z,12.53
2023-01-30T05:24:53.556Z,13.50
2023-01-30T05:27:20.122Z,14.03
2023-01-30T05:29:46.718Z,15.17
2023-01-30T05:32:14.491Z,14.93
2023-01-30T05:34:42.591Z,14.17
2023-01-30T05:37:09.483Z,17.67
2023-01-30T05:39:36.028Z,14.80
2023-01-30T05:42:02.569Z,14.07
2023-01-30T05:44:29.068Z,15.17
2023-01-30T05:46:55.612Z,14.40
2023-01-30T05:49:22.229Z,11.97
2023-01-30T05:51:51.576Z,12.27
2023-01-30T05:54:18.179Z,12.63
2023-01-30T05:56:48.277Z,14.57
2023-01-30T05:59:14.784Z,16.50
2023-01-30T06:01:41.271Z,14.23
2023-01-30T06:04:07.865Z,13.83
2023-01-30T06:06:34.438Z,13.73
2023-01-30T06:09:02.356Z,13.10
2023-01-30T06:11:28.878Z,14.10
2023-01-30T06:13:55.388Z,14.20
2023-01-30T06:16:22.144Z,13.27
2023-01-30T06:18:48.767Z,14.33
2023-01-30T06:21:16.185Z,12.40
2023-01-30T06:23:43.394Z,12.80
2023-01-30T06:26:11.358Z,11.93
2023-01-30T06:28:38.294Z,11.87
2023-01-30T06:31:06.708Z,13.07
2023-01-30T06:33:33.336Z,11.53
2023-01-30T06:35:59.916Z,13.50
2023-01-30T06:38:26.471Z,14.20
2023-01-30T06:40:52.978Z,12.00
2023-01-30T06:43:20.857Z,14.10
2023-01-30T06:45:47.484Z,11.90
2023-01-30T06:48:13.982Z,14.87
2023-01-30T06:50:40.500Z,13.20
2023-01-30T06:53:07.858Z,11.67
2023-01-30T06:55:36.153Z,12.47
2023-01-30T06:58:04.316Z,11.70
2023-01-30T07:00:33.223Z,10.73
2023-01-30T07:02:59.744Z,12.20
2023-01-30T07:05:26.569Z,12.17
2023-01-30T07:07:53.073Z,11.17
2023-01-30T07:10:19.772Z,11.57
2023-01-30T07:12:47.076Z,11.07
2023-01-30T07:15:13.787Z,11.97
2023-01-30T07:17:41.962Z,10.80
2023-01-30T07:20:10.027Z,10.97
2023-01-30T07:22:36.531Z,8.70
2023-01-30T07:25:03.657Z,10.70
2023-01-30T07:27:30.167Z,8.73
2023-01-30T07:29:56.686Z,10.07
2023-01-30T07:32:23.263Z,9.97
2023-01-30T07:34:51.172Z,8.80
2023-01-30T07:37:17.729Z,9.30
2023-01-30T07:39:44.235Z,8.60
2023-01-30T07:42:10.748Z,9.30
2023-01-30T07:44:37.221Z,9.33
2023-01-30T07:47:03.812Z,9.73
2023-01-30T07:49:30.348Z,8.27
2023-01-30T07:51:58.196Z,8.43
2023-01-30T07:54:24.695Z,9.73
2023-01-30T07:56:51.184Z,9.53
2023-01-30T07:59:17.853Z,8.77
2023-01-30T08:01:44.337Z,9.87
2023-01-30T08:04:10.868Z,8.80
2023-01-30T08:06:37.459Z,8.97
2023-01-30T08:09:06.092Z,7.73
2023-01-30T08:11:32.642Z,11.33
2023-01-30T08:13:59.160Z,9.97
2023-01-30T08:16:25.848Z,9.93
2023-01-30T08:18:52.363Z,9.23
2023-01-30T08:21:18.887Z,7.40
2023-01-30T08:23:45.405Z,8.50
2023-01-30T08:26:13.287Z,10.90
2023-01-30T08:28:40.009Z,8.83
2023-01-30T08:31:09.491Z,9.80
2023-01-30T08:33:36.083Z,10.17
2023-01-30T08:36:02.636Z,9.20
2023-01-30T08:38:29.162Z,10.53
2023-01-30T08:40:55.717Z,8.13
2023-01-30T08:43:23.665Z,9.40
2023-01-30T08:45:53.124Z,10.57
2023-01-30T08:48:19.633Z,9.43
2023-01-30T08:50:46.171Z,10.60
2023-01-30T08:53:12.724Z,9.80
2023-01-30T08:55:39.304Z,11.63
2023-01-30T08:58:05.838Z,8.83
2023-01-30T09:00:33.774Z,10.07
2023-01-30T09:03:00.304Z,12.57
2023-01-30T09:05:26.819Z,15.07
2023-01-30T09:07:53.350Z,23.10
2023-01-30T09:10:20.165Z,22.30
2023-01-30T09:12:46.918Z,28.50
2023-01-30T09:15:13.595Z,17.80
2023-01-30T09:17:41.513Z,12.43
2023-01-30T09:20:09.426Z,14.67
2023-01-30T09:22:35.958Z,11.90
2023-01-30T09:25:02.479Z,11.17
2023-01-30T09:27:29.081Z,12.27
2023-01-30T09:29:55.583Z,9.17
2023-01-30T09:32:22.128Z,12.53
2023-01-30T09:34:50.036Z,15.00
2023-01-30T09:37:16.693Z,14.17
2023-01-30T09:39:43.238Z,13.30
2023-01-30T09:42:37.713Z,11.10
2023-01-30T09:45:25.543Z,11.43
2023-01-30T09:48:03.001Z,10.20
2023-01-30T09:50:45.569Z,10.20
2023-01-30T09:53:20.430Z,11.10
2023-01-30T09:55:47.831Z,8.57
2023-01-30T09:58:18.212Z,9.27
2023-01-30T10:00:45.237Z,8.30
2023-01-30T10:03:13.644Z,7.83
2023-01-30T10:05:45.918Z,7.67
2023-01-30T10:08:38.894Z,7.20
2023-01-30T10:11:14.607Z,8.60
2023-01-30T10:13:58.847Z,6.43
2023-01-30T10:16:30.297Z,5.73
2023-01-30T10:19:20.547Z,6.40
2023-01-30T10:22:02.155Z,7.67
2023-01-30T10:24:44.162Z,7.07
2023-01-30T10:27:14.528Z,6.00
2023-01-30T10:29:44.503Z,7.00
2023-01-30T10:32:14.599Z,4.87
2023-01-30T10:34:45.840Z,5.80
2023-01-30T10:37:18.948Z,5.87
2023-01-30T10:39:55.402Z,6.87
2023-01-30T10:42:28.039Z,4.80
2023-01-30T10:45:00.470Z,6.00
2023-01-30T10:47:50.351Z,4.33
2023-01-30T10:50:19.465Z,5.37
2023-01-30T10:52:54.975Z,5.03
2023-01-30T10:55:37.300Z,6.43
2023-01-30T10:58:13.286Z,5.33
2023-01-30T11:00:42.702Z,6.03
2023-01-30T11:03:20.955Z,4.30
2023-01-30T11:05:50.298Z,5.37
2023-01-30T11:08:26.083Z,5.50
2023-01-30T11:10:54.117Z,5.23
2023-01-30T11:13:22.169Z,4.03
2023-01-30T11:15:52.604Z,4.03
2023-01-30T11:19:17.308Z,4.47
2023-01-30T11:21:10.492Z,4.70
2023-01-30T11:23:42.025Z,4.43
2023-01-30T11:26:19.492Z,4.23
2023-01-30T11:28:47.722Z,4.93
2023-01-30T11:31:31.616Z,4.90
2023-01-30T11:34:14.669Z,3.70
2023-01-30T11:36:41.848Z,4.77
2023-01-30T11:39:20.649Z,4.70
2023-01-30T11:41:58.476Z,3.50
2023-01-30T11:44:26.581Z,3.10
2023-01-30T11:46:53.533Z,3.27
2023-01-30T11:49:45.069Z,3.13
2023-01-30T11:52:08.437Z,4.53
2023-01-30T11:54:39.460Z,3.10
2023-01-30T11:57:11.257Z,2.30
2023-01-30T11:59:43.651Z,2.43
2023-01-30T12:02:18.012Z,2.30
2023-01-30T12:04:45.789Z,2.60
2023-01-30T12:07:20.527Z,2.10
2023-01-30T12:09:48.474Z,2.00
2023-01-30T12:12:31.026Z,1.80
2023-01-30T12:15:14.836Z,2.37
2023-01-30T12:17:46.967Z,2.20
2023-01-30T12:20:21.215Z,2.20
2023-01-30T12:22:56.665Z,2.50
2023-01-30T12:25:27.348Z,3.17
2023-01-30T12:28:01.735Z,2.17
2023-01-30T12:30:35.165Z,2.47
2023-01-30T12:33:03.642Z,2.40
2023-01-30T12:35:44.651Z,2.97
2023-01-30T12:38:29.283Z,2.47
2023-01-30T12:41:07.548Z,2.67
2023-01-30T12:43:53.327Z,3.07
2023-01-30T12:46:45.949Z,5.07
2023-01-30T12:49:30.592Z,3.13
2023-01-30T12:52:18.959Z,3.30
2023-01-30T12:54:55.733Z,2.53
2023-01-30T12:57:32.873Z,2.60
2023-01-30T13:00:11.895Z,2.77
2023-01-30T13:02:52.403Z,3.17
2023-01-30T13:05:31.812Z,2.27
2023-01-30T13:08:18.070Z,2.77
2023-01-30T13:10:51.055Z,3.00
2023-01-30T13:13:25.882Z,2.47
2023-01-30T13:16:00.419Z,4.00
2023-01-30T13:18:32.876Z,3.47
2023-01-30T13:21:08.144Z,2.30
2023-01-30T13:23:44.367Z,4.10
2023-01-30T13:26:14.474Z,3.03
2023-01-30T13:28:45.644Z,3.33
2023-01-30T13:31:16.931Z,2.57
2023-01-30T13:33:45.725Z,2.23
2023-01-30T13:36:15.864Z,2.20
2023-01-30T13:38:53.489Z,2.30
2023-01-30T13:41:20.708Z,3.17
2023-01-30T13:43:52.990Z,1.97
2023-01-30T13:46:26.221Z,2.60
2023-01-30T13:49:04.765Z,3.30
2023-01-30T13:51:44.492Z,2.47
2023-01-30T13:54:26.144Z,1.50
2023-01-30T13:56:57.895Z,1.50
2023-01-30T13:59:54.964Z,1.57
2023-01-30T14:02:23.182Z,1.17
2023-01-30T14:04:51.361Z,2.83
2023-01-30T14:07:29.700Z,1.80
2023-01-30T14:10:11.521Z,1.47
2023-01-30T14:12:41.967Z,1.57
2023-01-30T14:15:24.633Z,2.40
2023-01-30T14:18:04.410Z,1.90
2023-01-30T14:20:32.938Z,1.63
2023-01-30T14:23:01.521Z,2.37
2023-01-30T14:25:47.208Z,1.80
2023-01-30T14:28:47.323Z,1.50
2023-01-30T14:31:52.414Z,1.70
2023-01-30T14:34:48.425Z,2.87
2023-01-30T14:37:46.381Z,3.43
2023-01-30T14:40:47.261Z,1.73
2023-01-30T14:43:52.745Z,1.87
2023-01-30T14:46:42.503Z,2.47
2023-01-30T14:49:26.625Z,1.70
2023-01-30T14:51:55.104Z,1.50
2023-01-30T14:54:33.294Z,1.80
2023-01-30T14:57:19.568Z,2.20
2023-01-30T15:00:13.135Z,1.77
2023-01-30T15:02:42.382Z,1.67
2023-01-30T15:05:13.729Z,2.03
2023-01-30T15:07:44.163Z,1.90
2023-01-30T15:10:30.785Z,1.97
2023-01-30T15:13:22.185Z,2.23
2023-01-30T15:15:59.169Z,2.03
2023-01-30T15:18:41.509Z,2.83
2023-01-30T15:21:32.262Z,2.47
2023-01-30T15:24:14.679Z,2.87
2023-01-30T15:26:49.716Z,2.67
2023-01-30T15:29:51.742Z,2.47
2023-01-30T15:32:19.813Z,2.43
2023-01-30T15:34:50.800Z,2.80
2023-01-30T15:37:29.759Z,2.20
2023-01-30T15:40:23.318Z,2.57
2023-01-30T15:42:52.838Z,3.07
2023-01-30T15:45:27.906Z,3.67
2023-01-30T15:48:09.088Z,3.63
2023-01-30T15:50:36.913Z,1.80
2023-01-30T15:53:03.953Z,2.73
2023-01-30T15:55:35.270Z,2.03
2023-01-30T15:58:06.349Z,2.27
2023-01-30T16:00:35.893Z,3.90
2023-01-30T16:03:04.628Z,2.80
2023-01-30T16:05:31.183Z,4.17
2023-01-30T16:07:58.807Z,2.77
2023-01-30T16:10:27.249Z,4.73
2023-01-30T16:12:57.079Z,3.67
2023-01-30T16:15:32.180Z,2.83
2023-01-30T16:18:05.931Z,3.77
2023-01-30T16:20:48.742Z,3.53
2023-01-30T16:23:24.834Z,4.83
2023-01-30T16:25:54.750Z,2.83
2023-01-30T16:28:24.774Z,3.63
2023-01-30T16:30:58.110Z,3.10
2023-01-30T16:33:24.836Z,2.50
2023-01-30T16:35:51.342Z,2.97
2023-01-30T16:38:35.226Z,4.87
2023-01-30T16:41:01.749Z,3.77
2023-01-30T16:43:31.642Z,4.30
2023-01-30T16:46:31.450Z,4.00
2023-01-30T16:49:04.125Z,3.67
2023-01-30T16:51:31.387Z,5.43
2023-01-30T16:54:01.767Z,5.10
2023-01-30T16:56:30.104Z,3.47
2023-01-30T16:59:00.343Z,5.13
2023-01-30T17:01:38.554Z,4.80
2023-01-30T17:04:15.561Z,4.50
2023-01-30T17:06:42.190Z,5.87
2023-01-30T17:09:37.042Z,4.23
2023-01-30T17:12:48.112Z,5.03
2023-01-30T17:15:33.083Z,3.13
2023-01-30T17:17:59.709Z,4.27
2023-01-30T17:20:35.404Z,2.80
2023-01-30T17:23:07.805Z,4.37
2023-01-30T17:25:39.102Z,5.33
2023-01-30T17:28:06.936Z,5.37
2023-01-30T17:30:35.357Z,6.53
2023-01-30T17:33:01.987Z,4.17
2023-01-30T17:35:28.544Z,4.20
2023-01-30T17:38:04.722Z,3.23
2023-01-30T17:40:34.528Z,6.10
2023-01-30T17:43:01.198Z,3.87
2023-01-30T17:45:28.169Z,3.83
2023-01-30T17:47:56.227Z,5.90
2023-01-30T17:50:22.765Z,4.57
2023-01-30T17:52:49.321Z,5.03
2023-01-30T17:55:16.129Z,5.43
2023-01-30T17:57:45.369Z,5.20
2023-01-30T18:00:16.408Z,3.27
2023-01-30T18:02:43.190Z,5.47
2023-01-30T18:05:11.169Z,4.23
2023-01-30T18:07:37.978Z,3.63
2023-01-30T18:10:05.729Z,4.33
2023-01-30T18:12:32.264Z,4.23
2023-01-30T18:14:58.757Z,5.00
2023-01-30T18:17:26.541Z,5.00
2023-01-30T18:19:53.062Z,3.67
2023-01-30T18:22:20.978Z,3.97
2023-01-30T18:24:47.513Z,4.93
2023-01-30T18:27:14.054Z,5.47
2023-01-30T18:29:40.573Z,5.03
2023-01-30T18:32:07.061Z,3.13
2023-01-30T18:34:33.669Z,5.23
2023-01-30T18:37:00.187Z,3.93
2023-01-30T18:39:28.132Z,2.87
2023-01-30T18:41:54.670Z,6.33
2023-01-30T18:44:21.190Z,3.93
2023-01-30T18:46:49.304Z,3.87
2023-01-30T18:49:15.850Z,4.20
2023-01-30T18:51:42.399Z,4.73
2023-01-30T18:54:08.970Z,5.57
2023-01-30T18:56:36.850Z,4.30
2023-01-30T18:59:05.779Z,3.77
2023-01-30T19:01:33.725Z,3.80
2023-01-30T19:04:03.190Z,4.77
2023-01-30T19:06:30.074Z,4.67
2023-01-30T19:08:57.388Z,4.90
2023-01-30T19:11:24.194Z,4.50
2023-01-30T19:13:52.179Z,4.33
2023-01-30T19:16:19.122Z,2.70
2023-01-30T19:18:46.199Z,4.23
2023-01-30T19:21:12.910Z,3.73
2023-01-30T19:23:39.432Z,4.03
2023-01-30T19:26:05.975Z,2.93
2023-01-30T19:28:32.623Z,5.00
2023-01-30T19:31:05.798Z,5.60
2023-01-30T19:33:32.491Z,3.67
2023-01-30T19:36:07.762Z,3.80
2023-01-30T19:38:34.279Z,5.93
2023-01-30T19:41:00.925Z,3.47
2023-01-30T19:43:27.436Z,4.60
2023-01-30T19:45:57.702Z,3.73
2023-01-30T19:48:26.282Z,4.97
2023-01-30T19:50:53.065Z,6.63
2023-01-30T19:53:19.758Z,4.87
2023-01-30T19:55:49.884Z,4.50
2023-01-30T19:58:16.547Z,5.57
2023-01-30T20:00:43.283Z,6.07
2023-01-30T20:03:09.942Z,5.43
2023-01-30T20:05:37.821Z,4.73
2023-01-30T20:08:04.663Z,7.60
2023-01-30T20:10:31.232Z,3.70
2023-01-30T20:12:57.818Z,6.63
2023-01-30T20:15:24.364Z,5.20
2023-01-30T20:17:50.952Z,5.27
2023-01-30T20:20:18.165Z,4.20
2023-01-30T20:22:46.592Z,7.53
2023-01-30T20:25:13.110Z,5.53
2023-01-30T20:27:39.630Z,5.43
2023-01-30T20:30:08.526Z,5.27
2023-01-30T20:32:35.068Z,6.23
2023-01-30T20:35:01.596Z,5.97
2023-01-30T20:37:28.097Z,8.83
2023-01-30T20:39:55.984Z,7.07
2023-01-30T20:42:22.535Z,7.00
2023-01-30T20:44:49.151Z,5.33
2023-01-30T20:47:15.683Z,4.03
2023-01-30T20:49:42.193Z,4.70
2023-01-30T20:52:08.714Z,4.43
2023-01-30T20:54:35.357Z,4.87
2023-01-30T20:57:04.930Z,6.13
2023-01-30T20:59:31.549Z,4.07
2023-01-30T21:01:58.063Z,4.30
2023-01-30T21:04:24.750Z,5.17
2023-01-30T21:06:51.479Z,5.83
2023-01-30T21:09:20.697Z,5.27
2023-01-30T21:11:48.380Z,5.87
2023-01-30T21:14:17.048Z,6.53
2023-01-30T21:16:44.084Z,4.67
2023-01-30T21:19:14.175Z,6.80
2023-01-30T21:21:43.772Z,6.43
2023-01-30T21:24:13.177Z,4.10
2023-01-30T21:26:42.558Z,3.80
2023-01-30T21:29:09.107Z,6.90
2023-01-30T21:31:38.325Z,6.33
2023-01-30T21:34:05.215Z,5.77
2023-01-30T21:36:31.969Z,5.40
2023-01-30T21:38:58.899Z,5.80
2023-01-30T21:41:28.572Z,5.53
2023-01-30T21:43:55.088Z,5.03
2023-01-30T21:46:21.729Z,5.27
2023-01-30T21:48:49.622Z,4.63
2023-01-30T21:51:16.129Z,4.57
2023-01-30T21:53:42.646Z,4.97
2023-01-30T21:56:09.138Z,6.23
2023-01-30T21:58:35.672Z,5.73
2023-01-30T22:01:06.753Z,4.10
2023-01-30T22:03:33.762Z,7.60
2023-01-30T22:06:02.023Z,8.37
2023-01-30T22:08:28.575Z,5.53
2023-01-30T22:11:04.622Z,4.50
2023-01-30T22:13:32.008Z,4.43
2023-01-30T22:16:00.850Z,6.17
2023-01-30T22:18:27.386Z,2.73
2023-01-30T22:20:54.046Z,4.53
2023-01-30T22:23:21.966Z,4.97
2023-01-30T22:25:53.833Z,5.40
2023-01-30T22:28:20.376Z,3.50
2023-01-30T22:30:46.952Z,7.63
2023-01-30T22:33:13.486Z,5.70
2023-01-30T22:35:40.025Z,5.57
2023-01-30T22:38:06.578Z,5.00
2023-01-30T22:40:34.448Z,4.20
2023-01-30T22:43:01.113Z,6.43
2023-01-30T22:45:27.612Z,7.73
2023-01-30T22:47:54.386Z,4.33
2023-01-30T22:50:20.949Z,4.77
2023-01-30T22:52:47.509Z,5.77
2023-01-30T22:55:14.163Z,3.83
2023-01-30T22:57:42.029Z,3.77
2023-01-30T23:00:10.144Z,3.87
2023-01-30T23:02:36.950Z,4.90
2023-01-30T23:05:03.885Z,5.37
2023-01-30T23:07:30.389Z,6.30
2023-01-30T23:09:56.921Z,5.10
2023-01-30T23:12:23.639Z,6.27
2023-01-30T23:14:51.616Z,4.10
2023-01-30T23:17:18.159Z,4.73
2023-01-30T23:19:44.671Z,4.93
2023-01-30T23:22:11.187Z,6.37
2023-01-30T23:24:37.799Z,4.77
2023-01-30T23:27:04.301Z,6.13
2023-01-30T23:29:30.837Z,5.73
2023-01-30T23:31:58.781Z,5.90
2023-01-30T23:34:25.311Z,6.03
2023-01-30T23:36:51.811Z,6.10
2023-01-30T23:39:18.317Z,5.70
2023-01-30T23:41:44.822Z,3.80
2023-01-30T23:44:11.576Z,4.17
2023-01-30T23:46:40.006Z,6.77
2023-01-30T23:49:09.637Z,3.57
2023-01-30T23:51:38.719Z,7.70
2023-01-30T23:54:06.091Z,4.23
2023-01-30T23:56:34.199Z,4.83
2023-01-30T23:59:01.066Z,5.23
